sensor_id;sensor_type;location;lat;lon;timestamp;temperature;humidity
32965;DHT22;19317;48.226;11.686;2023-07-02T00:01:47;17.70;99.90
32965;DHT22;19317;48.226;11.686;2023-07-02T00:06:38;17.60;99.90
32965;DHT22;19317;48.226;11.686;2023-07-02T00:11:28;17.50;99.90
32965;DHT22;19317;48.226;11.686;2023-07-02T00:16:19;17.50;99.90
32965;DHT22;19317;48.226;11.686;2023-07-02T00:21:09;17.50;99.90
32965;DHT22;19317;48.226;11.686;2023-07-02T00:26:00;17.50;99.90
32965;DHT22;19317;48.226;11.686;2023-07-02T00:30:50;17.40;99.90
32965;DHT22;19317;48.226;11.686;2023-07-02T00:35:41;17.40;99.90
32965;DHT22;19317;48.226;11.686;2023-07-02T00:40:31;17.40;99.90
32965;DHT22;19317;48.226;11.686;2023-07-02T00:45:22;17.40;99.90
32965;DHT22;19317;48.226;11.686;2023-07-02T00:50:13;17.40;99.90
32965;DHT22;19317;48.226;11.686;2023-07-02T00:55:04;17.50;99.90
32965;DHT22;19317;48.226;11.686;2023-07-02T00:59:56;17.40;99.90
32965;DHT22;19317;48.226;11.686;2023-07-02T01:04:47;17.30;99.90
32965;DHT22;19317;48.226;11.686;2023-07-02T01:09:38;17.10;99.90
32965;DHT22;19317;48.226;11.686;2023-07-02T01:14:32;17.40;99.90
32965;DHT22;19317;48.226;11.686;2023-07-02T01:19:37;17.50;99.90
32965;DHT22;19317;48.226;11.686;2023-07-02T01:24:28;17.40;99.90
32965;DHT22;19317;48.226;11.686;2023-07-02T01:29:20;17.30;99.90
32965;DHT22;19317;48.226;11.686;2023-07-02T01:34:11;17.20;99.90
32965;DHT22;19317;48.226;11.686;2023-07-02T01:39:01;17.30;99.90
32965;DHT22;19317;48.226;11.686;2023-07-02T01:43:52;17.20;99.90
32965;DHT22;19317;48.226;11.686;2023-07-02T01:48:42;17.30;99.90
32965;DHT22;19317;48.226;11.686;2023-07-02T01:53:33;17.20;99.90
32965;DHT22;19317;48.226;11.686;2023-07-02T01:58:23;17.20;99.90
32965;DHT22;19317;48.226;11.686;2023-07-02T02:03:14;17.20;99.90
32965;DHT22;19317;48.226;11.686;2023-07-02T02:08:04;17.30;99.90
32965;DHT22;19317;48.226;11.686;2023-07-02T02:12:55;17.20;99.90
32965;DHT22;19317;48.226;11.686;2023-07-02T02:17:45;17.20;99.90
32965;DHT22;19317;48.226;11.686;2023-07-02T02:22:35;17.90;99.90
32965;DHT22;19317;48.226;11.686;2023-07-02T02:27:26;17.20;99.90
32965;DHT22;19317;48.226;11.686;2023-07-02T02:32:16;17.20;99.90
32965;DHT22;19317;48.226;11.686;2023-07-02T02:37:07;17.20;99.90
32965;DHT22;19317;48.226;11.686;2023-07-02T02:41:57;17.20;99.90
32965;DHT22;19317;48.226;11.686;2023-07-02T02:46:48;17.30;99.90
32965;DHT22;19317;48.226;11.686;2023-07-02T02:51:38;17.20;99.90
32965;DHT22;19317;48.226;11.686;2023-07-02T02:56:28;17.30;99.90
32965;DHT22;19317;48.226;11.686;2023-07-02T03:01:19;17.30;99.90
32965;DHT22;19317;48.226;11.686;2023-07-02T03:06:09;17.20;99.90
32965;DHT22;19317;48.226;11.686;2023-07-02T03:11:00;17.30;99.90
32965;DHT22;19317;48.226;11.686;2023-07-02T03:15:50;17.30;99.90
32965;DHT22;19317;48.226;11.686;2023-07-02T03:20:41;16.50;99.90
32965;DHT22;19317;48.226;11.686;2023-07-02T03:25:31;16.00;99.90
32965;DHT22;19317;48.226;11.686;2023-07-02T03:30:22;15.90;99.90
32965;DHT22;19317;48.226;11.686;2023-07-02T03:35:12;15.70;99.90
32965;DHT22;19317;48.226;11.686;2023-07-02T03:40:03;15.50;99.90
32965;DHT22;19317;48.226;11.686;2023-07-02T03:44:53;15.50;99.90
32965;DHT22;19317;48.226;11.686;2023-07-02T03:49:44;15.40;99.90
32965;DHT22;19317;48.226;11.686;2023-07-02T03:54:34;15.40;99.90
32965;DHT22;19317;48.226;11.686;2023-07-02T03:59:25;15.40;99.90
32965;DHT22;19317;48.226;11.686;2023-07-02T04:04:15;15.30;99.90
32965;DHT22;19317;48.226;11.686;2023-07-02T04:09:05;14.90;99.90
32965;DHT22;19317;48.226;11.686;2023-07-02T04:13:56;15.00;99.90
32965;DHT22;19317;48.226;11.686;2023-07-02T04:18:46;15.00;99.90
32965;DHT22;19317;48.226;11.686;2023-07-02T04:23:37;15.20;99.90
32965;DHT22;19317;48.226;11.686;2023-07-02T04:28:27;15.30;99.90
32965;DHT22;19317;48.226;11.686;2023-07-02T04:33:18;15.30;99.90
32965;DHT22;19317;48.226;11.686;2023-07-02T04:38:08;15.40;99.90
32965;DHT22;19317;48.226;11.686;2023-07-02T04:42:59;15.00;99.90
32965;DHT22;19317;48.226;11.686;2023-07-02T04:47:49;15.30;99.90
32965;DHT22;19317;48.226;11.686;2023-07-02T04:52:40;15.30;99.90
32965;DHT22;19317;48.226;11.686;2023-07-02T04:57:30;15.40;99.90
32965;DHT22;19317;48.226;11.686;2023-07-02T05:02:21;15.30;99.90
32965;DHT22;19317;48.226;11.686;2023-07-02T05:07:11;15.20;99.90
32965;DHT22;19317;48.226;11.686;2023-07-02T05:12:02;15.30;99.90
32965;DHT22;19317;48.226;11.686;2023-07-02T05:16:52;15.10;99.90
32965;DHT22;19317;48.226;11.686;2023-07-02T05:21:43;15.20;99.90
32965;DHT22;19317;48.226;11.686;2023-07-02T05:26:34;15.20;99.90
32965;DHT22;19317;48.226;11.686;2023-07-02T05:31:24;15.20;99.90
32965;DHT22;19317;48.226;11.686;2023-07-02T05:36:15;15.30;99.90
32965;DHT22;19317;48.226;11.686;2023-07-02T05:41:05;15.40;99.90
32965;DHT22;19317;48.226;11.686;2023-07-02T05:45:58;15.40;99.90
32965;DHT22;19317;48.226;11.686;2023-07-02T05:50:49;15.50;99.90
32965;DHT22;19317;48.226;11.686;2023-07-02T05:55:39;15.60;99.90
32965;DHT22;19317;48.226;11.686;2023-07-02T06:00:30;15.60;99.90
32965;DHT22;19317;48.226;11.686;2023-07-02T06:05:20;15.90;99.90
32965;DHT22;19317;48.226;11.686;2023-07-02T06:10:11;15.80;99.90
32965;DHT22;19317;48.226;11.686;2023-07-02T06:15:02;15.80;99.90
32965;DHT22;19317;48.226;11.686;2023-07-02T06:19:53;16.00;99.90
32965;DHT22;19317;48.226;11.686;2023-07-02T06:24:43;15.90;99.90
32965;DHT22;19317;48.226;11.686;2023-07-02T06:29:33;16.30;99.90
32965;DHT22;19317;48.226;11.686;2023-07-02T06:34:24;16.00;99.90
32965;DHT22;19317;48.226;11.686;2023-07-02T06:39:14;15.90;99.90
32965;DHT22;19317;48.226;11.686;2023-07-02T06:44:05;15.80;99.90
32965;DHT22;19317;48.226;11.686;2023-07-02T06:48:55;15.70;99.90
32965;DHT22;19317;48.226;11.686;2023-07-02T06:53:46;15.80;99.90
32965;DHT22;19317;48.226;11.686;2023-07-02T06:58:36;16.00;99.90
32965;DHT22;19317;48.226;11.686;2023-07-02T07:03:27;15.90;99.90
32965;DHT22;19317;48.226;11.686;2023-07-02T07:08:17;15.80;99.90
32965;DHT22;19317;48.226;11.686;2023-07-02T07:13:08;15.70;99.90
32965;DHT22;19317;48.226;11.686;2023-07-02T07:17:58;15.60;99.90
32965;DHT22;19317;48.226;11.686;2023-07-02T07:22:49;15.20;99.90
32965;DHT22;19317;48.226;11.686;2023-07-02T07:27:39;15.20;99.90
32965;DHT22;19317;48.226;11.686;2023-07-02T07:32:30;14.90;99.90
32965;DHT22;19317;48.226;11.686;2023-07-02T07:37:20;15.00;99.90
32965;DHT22;19317;48.226;11.686;2023-07-02T07:42:10;15.00;99.90
32965;DHT22;19317;48.226;11.686;2023-07-02T07:47:01;14.90;99.90
32965;DHT22;19317;48.226;11.686;2023-07-02T07:51:51;15.10;99.90
32965;DHT22;19317;48.226;11.686;2023-07-02T07:56:42;14.90;99.90
32965;DHT22;19317;48.226;11.686;2023-07-02T08:01:32;15.10;99.90
32965;DHT22;19317;48.226;11.686;2023-07-02T08:06:23;15.60;99.90
32965;DHT22;19317;48.226;11.686;2023-07-02T08:11:13;15.00;99.90
32965;DHT22;19317;48.226;11.686;2023-07-02T08:16:04;15.20;99.90
32965;DHT22;19317;48.226;11.686;2023-07-02T08:20:54;15.40;99.90
32965;DHT22;19317;48.226;11.686;2023-07-02T08:25:45;15.50;99.90
32965;DHT22;19317;48.226;11.686;2023-07-02T08:30:35;15.40;99.90
32965;DHT22;19317;48.226;11.686;2023-07-02T08:35:26;15.70;99.90
32965;DHT22;19317;48.226;11.686;2023-07-02T08:40:17;15.90;99.90
32965;DHT22;19317;48.226;11.686;2023-07-02T08:45:10;15.90;99.90
32965;DHT22;19317;48.226;11.686;2023-07-02T08:50:02;16.00;99.90
32965;DHT22;19317;48.226;11.686;2023-07-02T08:54:52;16.10;99.90
32965;DHT22;19317;48.226;11.686;2023-07-02T08:59:43;15.90;99.90
32965;DHT22;19317;48.226;11.686;2023-07-02T09:04:33;16.00;99.90
32965;DHT22;19317;48.226;11.686;2023-07-02T09:09:24;16.10;99.90
32965;DHT22;19317;48.226;11.686;2023-07-02T09:14:27;16.30;99.90
32965;DHT22;19317;48.226;11.686;2023-07-02T09:19:18;16.30;99.90
32965;DHT22;19317;48.226;11.686;2023-07-02T09:24:15;16.80;99.90
32965;DHT22;19317;48.226;11.686;2023-07-02T09:29:06;16.40;99.90
32965;DHT22;19317;48.226;11.686;2023-07-02T09:34:01;16.60;99.90
32965;DHT22;19317;48.226;11.686;2023-07-02T09:38:52;16.50;99.90
32965;DHT22;19317;48.226;11.686;2023-07-02T09:43:43;16.50;99.90
32965;DHT22;19317;48.226;11.686;2023-07-02T09:48:35;16.70;99.90
32965;DHT22;19317;48.226;11.686;2023-07-02T09:53:27;16.40;99.90
32965;DHT22;19317;48.226;11.686;2023-07-02T09:58:18;16.80;99.90
32965;DHT22;19317;48.226;11.686;2023-07-02T10:03:08;16.80;99.90
32965;DHT22;19317;48.226;11.686;2023-07-02T10:08:14;16.90;99.90
32965;DHT22;19317;48.226;11.686;2023-07-02T10:13:05;17.10;99.90
32965;DHT22;19317;48.226;11.686;2023-07-02T10:18:01;17.20;99.90
32965;DHT22;19317;48.226;11.686;2023-07-02T10:22:51;17.10;99.90
32965;DHT22;19317;48.226;11.686;2023-07-02T10:27:42;16.90;99.90
32965;DHT22;19317;48.226;11.686;2023-07-02T10:32:34;17.40;99.90
32965;DHT22;19317;48.226;11.686;2023-07-02T10:37:25;17.40;99.90
32965;DHT22;19317;48.226;11.686;2023-07-02T10:42:15;17.50;99.90
32965;DHT22;19317;48.226;11.686;2023-07-02T10:47:06;17.20;99.90
32965;DHT22;19317;48.226;11.686;2023-07-02T10:51:58;17.60;99.90
32965;DHT22;19317;48.226;11.686;2023-07-02T10:56:49;17.50;99.90
32965;DHT22;19317;48.226;11.686;2023-07-02T11:01:39;18.10;99.90
32965;DHT22;19317;48.226;11.686;2023-07-02T11:06:31;18.30;99.90
32965;DHT22;19317;48.226;11.686;2023-07-02T11:11:22;18.10;99.90
32965;DHT22;19317;48.226;11.686;2023-07-02T11:16:24;18.10;99.90
32965;DHT22;19317;48.226;11.686;2023-07-02T11:21:15;18.30;99.90
32965;DHT22;19317;48.226;11.686;2023-07-02T11:26:05;18.20;99.90
32965;DHT22;19317;48.226;11.686;2023-07-02T11:30:56;18.70;99.90
32965;DHT22;19317;48.226;11.686;2023-07-02T11:35:47;19.00;99.90
32965;DHT22;19317;48.226;11.686;2023-07-02T11:40:37;19.20;99.90
32965;DHT22;19317;48.226;11.686;2023-07-02T11:45:28;19.40;99.90
32965;DHT22;19317;48.226;11.686;2023-07-02T11:50:18;19.60;99.90
32965;DHT22;19317;48.226;11.686;2023-07-02T11:55:09;19.50;99.90
32965;DHT22;19317;48.226;11.686;2023-07-02T11:59:59;19.40;99.90
32965;DHT22;19317;48.226;11.686;2023-07-02T12:04:50;19.60;99.90
32965;DHT22;19317;48.226;11.686;2023-07-02T12:09:40;19.70;99.90
32965;DHT22;19317;48.226;11.686;2023-07-02T12:14:30;19.80;99.90
32965;DHT22;19317;48.226;11.686;2023-07-02T12:19:21;20.00;99.90
32965;DHT22;19317;48.226;11.686;2023-07-02T12:24:11;20.10;99.90
32965;DHT22;19317;48.226;11.686;2023-07-02T12:29:02;20.30;99.90
32965;DHT22;19317;48.226;11.686;2023-07-02T12:33:52;20.40;99.90
32965;DHT22;19317;48.226;11.686;2023-07-02T12:38:43;20.50;99.90
32965;DHT22;19317;48.226;11.686;2023-07-02T12:43:33;21.00;99.90
32965;DHT22;19317;48.226;11.686;2023-07-02T12:48:24;20.90;99.90
32965;DHT22;19317;48.226;11.686;2023-07-02T12:53:14;20.70;99.90
32965;DHT22;19317;48.226;11.686;2023-07-02T12:58:04;20.90;99.90
32965;DHT22;19317;48.226;11.686;2023-07-02T13:02:55;21.10;99.90
32965;DHT22;19317;48.226;11.686;2023-07-02T13:07:45;21.00;99.90
32965;DHT22;19317;48.226;11.686;2023-07-02T13:12:36;21.50;99.90
32965;DHT22;19317;48.226;11.686;2023-07-02T13:17:26;21.20;99.90
32965;DHT22;19317;48.226;11.686;2023-07-02T13:22:17;21.30;99.90
32965;DHT22;19317;48.226;11.686;2023-07-02T13:27:12;21.40;99.90
32965;DHT22;19317;48.226;11.686;2023-07-02T13:32:04;21.30;99.90
32965;DHT22;19317;48.226;11.686;2023-07-02T13:36:55;21.40;99.90
32965;DHT22;19317;48.226;11.686;2023-07-02T13:41:45;21.50;99.90
32965;DHT22;19317;48.226;11.686;2023-07-02T13:46:35;21.60;99.90
32965;DHT22;19317;48.226;11.686;2023-07-02T13:51:26;22.10;99.90
32965;DHT22;19317;48.226;11.686;2023-07-02T13:56:16;22.10;99.90
32965;DHT22;19317;48.226;11.686;2023-07-02T14:01:07;22.30;99.90
32965;DHT22;19317;48.226;11.686;2023-07-02T14:05:57;22.30;99.90
32965;DHT22;19317;48.226;11.686;2023-07-02T14:10:48;22.40;99.90
32965;DHT22;19317;48.226;11.686;2023-07-02T14:15:38;22.10;99.90
32965;DHT22;19317;48.226;11.686;2023-07-02T14:20:29;22.30;99.90
32965;DHT22;19317;48.226;11.686;2023-07-02T14:25:19;22.40;99.90
32965;DHT22;19317;48.226;11.686;2023-07-02T14:30:10;22.50;99.90
32965;DHT22;19317;48.226;11.686;2023-07-02T14:35:02;22.20;99.90
32965;DHT22;19317;48.226;11.686;2023-07-02T14:39:53;22.40;99.90
32965;DHT22;19317;48.226;11.686;2023-07-02T14:44:43;22.70;99.90
32965;DHT22;19317;48.226;11.686;2023-07-02T14:49:34;22.70;99.90
32965;DHT22;19317;48.226;11.686;2023-07-02T14:54:24;22.80;99.90
32965;DHT22;19317;48.226;11.686;2023-07-02T14:59:15;23.20;99.90
32965;DHT22;19317;48.226;11.686;2023-07-02T15:04:05;23.30;99.90
32965;DHT22;19317;48.226;11.686;2023-07-02T15:08:55;23.10;99.90
32965;DHT22;19317;48.226;11.686;2023-07-02T15:13:46;23.60;99.90
32965;DHT22;19317;48.226;11.686;2023-07-02T15:18:37;23.70;99.90
32965;DHT22;19317;48.226;11.686;2023-07-02T15:23:28;23.70;99.90
32965;DHT22;19317;48.226;11.686;2023-07-02T15:28:19;23.30;99.90
32965;DHT22;19317;48.226;11.686;2023-07-02T15:33:09;23.50;99.90
32965;DHT22;19317;48.226;11.686;2023-07-02T15:38:00;23.60;99.90
32965;DHT22;19317;48.226;11.686;2023-07-02T15:42:53;23.60;99.90
32965;DHT22;19317;48.226;11.686;2023-07-02T15:47:44;24.00;99.90
32965;DHT22;19317;48.226;11.686;2023-07-02T15:52:34;24.10;99.90
32965;DHT22;19317;48.226;11.686;2023-07-02T15:57:25;23.70;99.90
32965;DHT22;19317;48.226;11.686;2023-07-02T16:02:15;23.50;99.90
32965;DHT22;19317;48.226;11.686;2023-07-02T16:07:07;23.90;99.90
32965;DHT22;19317;48.226;11.686;2023-07-02T16:11:57;24.00;99.90
32965;DHT22;19317;48.226;11.686;2023-07-02T16:16:48;24.10;99.90
32965;DHT22;19317;48.226;11.686;2023-07-02T16:21:39;23.70;99.90
32965;DHT22;19317;48.226;11.686;2023-07-02T16:26:29;23.80;99.90
32965;DHT22;19317;48.226;11.686;2023-07-02T16:31:20;23.70;99.90
32965;DHT22;19317;48.226;11.686;2023-07-02T16:36:12;23.30;99.90
32965;DHT22;19317;48.226;11.686;2023-07-02T16:41:03;23.30;99.90
32965;DHT22;19317;48.226;11.686;2023-07-02T16:45:54;23.80;99.90
32965;DHT22;19317;48.226;11.686;2023-07-02T16:50:45;23.60;99.90
32965;DHT22;19317;48.226;11.686;2023-07-02T16:55:36;23.40;99.90
32965;DHT22;19317;48.226;11.686;2023-07-02T17:00:26;23.30;99.90
32965;DHT22;19317;48.226;11.686;2023-07-02T17:05:16;23.20;99.90
32965;DHT22;19317;48.226;11.686;2023-07-02T17:10:07;23.30;99.90
32965;DHT22;19317;48.226;11.686;2023-07-02T17:14:58;23.50;99.90
32965;DHT22;19317;48.226;11.686;2023-07-02T17:19:51;23.60;99.90
32965;DHT22;19317;48.226;11.686;2023-07-02T17:24:43;23.60;99.90
32965;DHT22;19317;48.226;11.686;2023-07-02T17:29:34;23.50;99.90
32965;DHT22;19317;48.226;11.686;2023-07-02T17:34:26;23.20;99.90
32965;DHT22;19317;48.226;11.686;2023-07-02T17:39:18;23.20;99.90
32965;DHT22;19317;48.226;11.686;2023-07-02T17:44:08;23.10;99.90
32965;DHT22;19317;48.226;11.686;2023-07-02T17:48:59;23.10;99.90
32965;DHT22;19317;48.226;11.686;2023-07-02T17:53:49;23.00;99.90
32965;DHT22;19317;48.226;11.686;2023-07-02T17:58:40;22.70;99.90
32965;DHT22;19317;48.226;11.686;2023-07-02T18:03:30;22.70;99.90
32965;DHT22;19317;48.226;11.686;2023-07-02T18:08:21;22.60;99.90
32965;DHT22;19317;48.226;11.686;2023-07-02T18:13:11;22.60;99.90
32965;DHT22;19317;48.226;11.686;2023-07-02T18:18:02;22.50;99.90
32965;DHT22;19317;48.226;11.686;2023-07-02T18:22:52;22.40;99.90
32965;DHT22;19317;48.226;11.686;2023-07-02T18:27:42;22.40;99.90
32965;DHT22;19317;48.226;11.686;2023-07-02T18:32:33;22.50;99.90
32965;DHT22;19317;48.226;11.686;2023-07-02T18:37:24;22.30;99.90
32965;DHT22;19317;48.226;11.686;2023-07-02T18:42:14;22.40;99.90
32965;DHT22;19317;48.226;11.686;2023-07-02T18:47:07;22.20;99.90
32965;DHT22;19317;48.226;11.686;2023-07-02T18:51:58;22.20;99.90
32965;DHT22;19317;48.226;11.686;2023-07-02T18:56:48;22.20;99.90
32965;DHT22;19317;48.226;11.686;2023-07-02T19:01:39;22.10;99.90
32965;DHT22;19317;48.226;11.686;2023-07-02T19:06:29;22.10;99.90
32965;DHT22;19317;48.226;11.686;2023-07-02T19:11:20;21.90;99.90
32965;DHT22;19317;48.226;11.686;2023-07-02T19:16:10;21.90;99.90
32965;DHT22;19317;48.226;11.686;2023-07-02T19:21:01;21.90;99.90
32965;DHT22;19317;48.226;11.686;2023-07-02T19:25:52;21.90;99.90
32965;DHT22;19317;48.226;11.686;2023-07-02T19:30:43;21.90;99.90
32965;DHT22;19317;48.226;11.686;2023-07-02T19:35:37;21.80;99.90
32965;DHT22;19317;48.226;11.686;2023-07-02T19:40:27;21.80;99.90
32965;DHT22;19317;48.226;11.686;2023-07-02T19:45:18;21.70;99.90
32965;DHT22;19317;48.226;11.686;2023-07-02T19:50:09;21.80;99.90
32965;DHT22;19317;48.226;11.686;2023-07-02T19:55:05;21.50;99.90
32965;DHT22;19317;48.226;11.686;2023-07-02T19:59:56;21.50;99.90
32965;DHT22;19317;48.226;11.686;2023-07-02T20:04:58;21.50;99.90
32965;DHT22;19317;48.226;11.686;2023-07-02T20:09:49;21.40;99.90
32965;DHT22;19317;48.226;11.686;2023-07-02T20:14:39;21.20;99.90
32965;DHT22;19317;48.226;11.686;2023-07-02T20:19:30;21.10;99.90
32965;DHT22;19317;48.226;11.686;2023-07-02T20:24:23;21.20;99.90
32965;DHT22;19317;48.226;11.686;2023-07-02T20:29:14;21.10;99.90
32965;DHT22;19317;48.226;11.686;2023-07-02T20:34:04;21.10;99.90
32965;DHT22;19317;48.226;11.686;2023-07-02T20:38:55;21.00;99.90
32965;DHT22;19317;48.226;11.686;2023-07-02T20:43:46;21.00;99.90
32965;DHT22;19317;48.226;11.686;2023-07-02T20:48:36;20.90;99.90
32965;DHT22;19317;48.226;11.686;2023-07-02T20:53:27;20.90;99.90
32965;DHT22;19317;48.226;11.686;2023-07-02T20:58:17;21.00;99.90
32965;DHT22;19317;48.226;11.686;2023-07-02T21:03:08;20.80;99.90
32965;DHT22;19317;48.226;11.686;2023-07-02T21:07:58;20.80;99.90
32965;DHT22;19317;48.226;11.686;2023-07-02T21:12:49;20.80;99.90
32965;DHT22;19317;48.226;11.686;2023-07-02T21:17:39;20.60;99.90
32965;DHT22;19317;48.226;11.686;2023-07-02T21:22:29;20.60;99.90
32965;DHT22;19317;48.226;11.686;2023-07-02T21:27:20;20.60;99.90
32965;DHT22;19317;48.226;11.686;2023-07-02T21:32:10;20.70;99.90
32965;DHT22;19317;48.226;11.686;2023-07-02T21:37:01;20.70;99.90
32965;DHT22;19317;48.226;11.686;2023-07-02T21:41:51;20.80;99.90
32965;DHT22;19317;48.226;11.686;2023-07-02T21:46:42;20.30;99.90
32965;DHT22;19317;48.226;11.686;2023-07-02T21:51:32;20.50;99.90
32965;DHT22;19317;48.226;11.686;2023-07-02T21:56:23;20.30;99.90
32965;DHT22;19317;48.226;11.686;2023-07-02T22:01:14;20.40;99.90
32965;DHT22;19317;48.226;11.686;2023-07-02T22:06:04;20.30;99.90
32965;DHT22;19317;48.226;11.686;2023-07-02T22:10:55;20.30;99.90
32965;DHT22;19317;48.226;11.686;2023-07-02T22:15:45;20.20;99.90
32965;DHT22;19317;48.226;11.686;2023-07-02T22:20:37;20.20;99.90
32965;DHT22;19317;48.226;11.686;2023-07-02T22:25:27;20.70;99.90
32965;DHT22;19317;48.226;11.686;2023-07-02T22:30:18;20.10;99.90
32965;DHT22;19317;48.226;11.686;2023-07-02T22:35:09;20.00;99.90
32965;DHT22;19317;48.226;11.686;2023-07-02T22:39:59;20.00;99.90
32965;DHT22;19317;48.226;11.686;2023-07-02T22:44:50;19.90;99.90
32965;DHT22;19317;48.226;11.686;2023-07-02T22:49:41;19.90;99.90
32965;DHT22;19317;48.226;11.686;2023-07-02T22:54:31;19.80;99.90
32965;DHT22;19317;48.226;11.686;2023-07-02T22:59:22;19.80;99.90
32965;DHT22;19317;48.226;11.686;2023-07-02T23:04:13;19.70;99.90
32965;DHT22;19317;48.226;11.686;2023-07-02T23:09:04;19.70;99.90
32965;DHT22;19317;48.226;11.686;2023-07-02T23:13:54;19.70;99.90
32965;DHT22;19317;48.226;11.686;2023-07-02T23:18:45;19.70;99.90
32965;DHT22;19317;48.226;11.686;2023-07-02T23:23:35;19.60;99.90
32965;DHT22;19317;48.226;11.686;2023-07-02T23:28:25;19.60;99.90
32965;DHT22;19317;48.226;11.686;2023-07-02T23:33:16;19.50;99.90
32965;DHT22;19317;48.226;11.686;2023-07-02T23:38:07;19.50;99.90
32965;DHT22;19317;48.226;11.686;2023-07-02T23:42:57;19.40;99.90
32965;DHT22;19317;48.226;11.686;2023-07-02T23:47:48;19.50;99.90
32965;DHT22;19317;48.226;11.686;2023-07-02T23:52:39;19.50;99.90
32965;DHT22;19317;48.226;11.686;2023-07-02T23:57:29;19.50;99.90
